Time;durP1;ratioP1;P1;durP2;ratioP2;P2;SDS_P1;SDS_P2;PMS_P1;PMS_P2;Temp;Humidity;BMP_temperature;BMP_pressure;BME280_temperature;BME280_humidity;BME280_pressure;Samples;Min_cycle;Max_cycle;Signal;HPM_P1;HPM_P2
2021/06/21 00:01:53;;;;;;;;;;;20.90;57.20;;;;;;485794;244;2202;-44
2021/06/21 00:03:54;;;;;;;;;;;20.90;57.10;;;;;;485884;245;1230;-44
2021/06/21 00:05:55;;;;;;;;;;;20.90;57.20;;;;;;486074;245;1168;-43
2021/06/21 00:07:57;;;;;;;;;;;20.90;57.20;;;;;;485906;245;1290;-43
2021/06/21 00:09:58;;;;;;;;;;;20.90;57.10;;;;;;486213;245;1013;-44
2021/06/21 00:11:59;;;;;;;;;;;20.90;57.20;;;;;;486080;245;1131;-43
2021/06/21 00:14:01;;;;;;;;;;;20.90;57.20;;;;;;485906;245;1069;-43
2021/06/21 00:16:02;;;;;;;;;;;20.90;57.20;;;;;;486053;245;1472;-44
2021/06/21 00:18:04;;;;;;;;;;;20.90;57.20;;;;;;485741;245;1274;-43
2021/06/21 00:20:05;;;;;;;;;;;20.90;57.20;;;;;;486236;245;1232;-43
2021/06/21 00:22:06;;;;;;;;;;;20.90;57.30;;;;;;485768;245;2150;-44
2021/06/21 00:24:08;;;;;;;;;;;20.90;57.20;;;;;;485760;245;1042;-44
2021/06/21 00:26:09;;;;;;;;;;;20.90;57.30;;;;;;486220;245;1088;-44
2021/06/21 00:28:10;;;;;;;;;;;20.90;57.20;;;;;;486068;245;1191;-43
2021/06/21 00:30:11;;;;;;;;;;;20.90;57.20;;;;;;486266;245;953;-44
2021/06/21 00:32:13;;;;;;;;;;;20.90;57.20;;;;;;485934;245;1049;-43
2021/06/21 00:34:14;;;;;;;;;;;20.90;57.20;;;;;;485756;244;1237;-44
2021/06/21 00:36:15;;;;;;;;;;;20.90;57.20;;;;;;485766;244;1105;-44
2021/06/21 00:38:17;;;;;;;;;;;20.90;57.20;;;;;;485961;245;1256;-44
2021/06/21 00:40:18;;;;;;;;;;;20.90;57.20;;;;;;485770;245;1041;-44
2021/06/21 00:42:20;;;;;;;;;;;20.90;57.30;;;;;;485763;245;2163;-44
2021/06/21 00:44:21;;;;;;;;;;;20.90;57.30;;;;;;485781;245;1060;-44
2021/06/21 00:46:22;;;;;;;;;;;20.90;57.20;;;;;;485794;245;1555;-44
2021/06/21 00:48:24;;;;;;;;;;;20.90;57.30;;;;;;485696;245;1527;-44
2021/06/21 00:50:25;;;;;;;;;;;20.90;57.30;;;;;;486015;245;1151;-44
2021/06/21 00:52:26;;;;;;;;;;;20.90;57.20;;;;;;485713;245;1211;-43
2021/06/21 00:54:28;;;;;;;;;;;20.90;57.30;;;;;;486149;245;1063;-43
2021/06/21 00:56:29;;;;;;;;;;;20.90;57.30;;;;;;485728;244;1307;-44
2021/06/21 00:58:30;;;;;;;;;;;20.90;57.20;;;;;;485800;245;1324;-44
2021/06/21 01:00:32;;;;;;;;;;;20.90;57.20;;;;;;485643;245;1366;-43
2021/06/21 01:02:33;;;;;;;;;;;20.90;57.30;;;;;;485761;244;2207;-44
2021/06/21 01:04:34;;;;;;;;;;;20.90;57.30;;;;;;485868;245;1166;-43
2021/06/21 01:06:36;;;;;;;;;;;20.90;57.30;;;;;;485787;245;1270;-44
2021/06/21 01:08:37;;;;;;;;;;;20.90;57.30;;;;;;486104;245;1022;-43
2021/06/21 01:10:38;;;;;;;;;;;20.80;57.30;;;;;;486234;245;1249;-43
2021/06/21 01:12:39;;;;;;;;;;;20.90;57.30;;;;;;485682;245;1309;-43
2021/06/21 01:14:41;;;;;;;;;;;20.90;57.40;;;;;;486083;245;1066;-44
2021/06/21 01:16:42;;;;;;;;;;;20.90;57.30;;;;;;486132;244;1482;-43
2021/06/21 01:18:43;;;;;;;;;;;20.90;57.30;;;;;;485867;245;1155;-44
2021/06/21 01:20:45;;;;;;;;;;;20.90;57.30;;;;;;485965;245;1043;-44
2021/06/21 01:22:46;;;;;;;;;;;20.90;57.30;;;;;;485696;245;2136;-44
2021/06/21 01:24:47;;;;;;;;;;;20.90;57.40;;;;;;486000;245;1063;-44
2021/06/21 01:26:49;;;;;;;;;;;20.90;57.30;;;;;;486274;244;1216;-43
2021/06/21 01:28:54;;;;;;;;;;;20.90;57.40;;;;;;485742;245;1056;-44
2021/06/21 01:30:52;;;;;;;;;;;20.90;57.40;;;;;;485873;245;2262;-44
2021/06/21 01:32:53;;;;;;;;;;;20.90;57.40;;;;;;486089;245;1131;-44
2021/06/21 01:34:55;;;;;;;;;;;20.90;57.40;;;;;;485771;244;1195;-43
2021/06/21 01:36:56;;;;;;;;;;;20.90;57.30;;;;;;485723;245;1348;-43
2021/06/21 01:38:57;;;;;;;;;;;20.90;57.30;;;;;;485738;245;1100;-44
2021/06/21 01:40:59;;;;;;;;;;;20.90;57.30;;;;;;485922;245;1107;-44
2021/06/21 01:43:00;;;;;;;;;;;20.90;57.40;;;;;;486202;245;2198;-44
2021/06/21 01:45:01;;;;;;;;;;;20.90;57.30;;;;;;486227;245;1056;-44
2021/06/21 01:47:03;;;;;;;;;;;20.90;57.30;;;;;;486135;245;1200;-43
2021/06/21 01:49:04;;;;;;;;;;;20.90;57.30;;;;;;485854;245;1170;-43
2021/06/21 01:51:05;;;;;;;;;;;20.90;57.30;;;;;;485767;245;1237;-44
2021/06/21 01:53:07;;;;;;;;;;;20.90;57.30;;;;;;486032;245;1107;-43
2021/06/21 01:55:08;;;;;;;;;;;20.90;57.30;;;;;;485902;245;1152;-43
2021/06/21 01:57:09;;;;;;;;;;;20.90;57.40;;;;;;485843;245;1331;-44
2021/06/21 01:59:11;;;;;;;;;;;20.90;57.40;;;;;;486150;245;1034;-43
2021/06/21 02:01:15;;;;;;;;;;;20.90;57.40;;;;;;485683;245;1050;-44
2021/06/21 02:03:14;;;;;;;;;;;20.90;57.40;;;;;;485546;245;2190;-44
2021/06/21 02:05:15;;;;;;;;;;;20.90;57.30;;;;;;485890;245;1221;-43
2021/06/21 02:07:16;;;;;;;;;;;20.90;57.30;;;;;;485771;244;1114;-44
2021/06/21 02:09:18;;;;;;;;;;;20.90;57.40;;;;;;485948;245;1124;-43
2021/06/21 02:11:19;;;;;;;;;;;20.90;57.40;;;;;;485893;245;1074;-44
2021/06/21 02:13:20;;;;;;;;;;;20.90;57.30;;;;;;486091;245;1068;-43
2021/06/21 02:15:22;;;;;;;;;;;20.80;57.40;;;;;;485844;245;1065;-44
2021/06/21 02:17:23;;;;;;;;;;;20.90;57.40;;;;;;485763;245;1154;-43
2021/06/21 02:19:24;;;;;;;;;;;20.90;57.30;;;;;;485734;245;1322;-43
2021/06/21 02:21:26;;;;;;;;;;;20.90;57.40;;;;;;485763;245;1228;-43
2021/06/21 02:23:27;;;;;;;;;;;20.90;57.40;;;;;;485784;245;2144;-44
2021/06/21 02:25:28;;;;;;;;;;;20.80;57.40;;;;;;485930;245;1125;-44
2021/06/21 02:27:30;;;;;;;;;;;20.80;57.40;;;;;;486063;245;1185;-43
2021/06/21 02:29:31;;;;;;;;;;;20.80;57.50;;;;;;486211;245;1033;-43
2021/06/21 02:31:32;;;;;;;;;;;20.90;57.40;;;;;;486075;245;1352;-43
2021/06/21 02:33:34;;;;;;;;;;;20.90;57.40;;;;;;486191;245;1102;-44
2021/06/21 02:35:35;;;;;;;;;;;20.90;57.30;;;;;;485692;245;1192;-43
2021/06/21 02:37:36;;;;;;;;;;;20.90;57.40;;;;;;485650;245;1169;-43
2021/06/21 02:39:38;;;;;;;;;;;20.90;57.30;;;;;;486205;245;1054;-44
2021/06/21 02:41:39;;;;;;;;;;;20.90;57.40;;;;;;485869;245;1241;-43
2021/06/21 02:43:40;;;;;;;;;;;20.90;57.30;;;;;;485781;245;2203;-43
2021/06/21 02:45:42;;;;;;;;;;;20.90;57.40;;;;;;485815;244;1060;-43
2021/06/21 02:47:43;;;;;;;;;;;20.90;57.40;;;;;;486202;245;1193;-43
2021/06/21 02:49:44;;;;;;;;;;;20.90;57.30;;;;;;486109;245;1271;-43
2021/06/21 02:51:47;;;;;;;;;;;20.90;57.30;;;;;;486186;245;1139;-43
2021/06/21 02:53:47;;;;;;;;;;;20.90;57.40;;;;;;485731;245;2217;-43
2021/06/21 02:55:49;;;;;;;;;;;20.90;57.30;;;;;;486174;245;1244;-43
2021/06/21 02:57:50;;;;;;;;;;;20.90;57.30;;;;;;486050;245;1091;-43
2021/06/21 02:59:52;;;;;;;;;;;20.90;57.30;;;;;;486233;245;1048;-43
2021/06/21 03:01:53;;;;;;;;;;;20.90;57.30;;;;;;486190;245;1251;-44
2021/06/21 03:03:54;;;;;;;;;;;20.90;57.40;;;;;;486261;244;2195;-44
2021/06/21 03:05:56;;;;;;;;;;;20.90;57.40;;;;;;485848;245;1167;-44
2021/06/21 03:07:57;;;;;;;;;;;20.90;57.40;;;;;;485836;244;1488;-43
2021/06/21 03:09:58;;;;;;;;;;;20.90;57.40;;;;;;485769;245;1061;-44
2021/06/21 03:12:00;;;;;;;;;;;20.90;57.40;;;;;;485720;245;1624;-44
2021/06/21 03:14:01;;;;;;;;;;;20.90;57.40;;;;;;486195;245;1060;-44
2021/06/21 03:16:02;;;;;;;;;;;20.90;57.40;;;;;;485685;245;1463;-43
2021/06/21 03:18:04;;;;;;;;;;;20.90;57.40;;;;;;485935;245;1039;-44
2021/06/21 03:20:05;;;;;;;;;;;20.90;57.40;;;;;;486057;245;1234;-44
2021/06/21 03:22:06;;;;;;;;;;;20.90;57.30;;;;;;485685;245;1308;-43
2021/06/21 03:24:08;;;;;;;;;;;20.90;57.40;;;;;;485725;245;2116;-43
2021/06/21 03:26:09;;;;;;;;;;;20.90;57.40;;;;;;485256;245;1475;-44
2021/06/21 03:28:10;;;;;;;;;;;20.90;57.40;;;;;;485878;245;1219;-44
2021/06/21 03:30:12;;;;;;;;;;;20.90;57.50;;;;;;486171;245;1046;-44
2021/06/21 03:32:13;;;;;;;;;;;20.90;57.40;;;;;;485791;245;1275;-44
2021/06/21 03:34:14;;;;;;;;;;;20.90;57.40;;;;;;485828;244;1062;-44
2021/06/21 03:36:16;;;;;;;;;;;20.90;57.50;;;;;;485709;245;1271;-43
2021/06/21 03:38:18;;;;;;;;;;;20.90;57.40;;;;;;486024;245;1037;-43
2021/06/21 03:40:18;;;;;;;;;;;20.90;57.50;;;;;;485671;245;2410;-44
2021/06/21 03:42:20;;;;;;;;;;;20.90;57.40;;;;;;485759;245;1217;-44
2021/06/21 03:44:21;;;;;;;;;;;20.80;57.50;;;;;;485924;245;2108;-43
2021/06/21 03:46:22;;;;;;;;;;;20.90;57.50;;;;;;486141;244;1210;-43
2021/06/21 03:48:23;;;;;;;;;;;20.90;57.40;;;;;;485705;245;1022;-44
2021/06/21 03:50:25;;;;;;;;;;;20.90;57.40;;;;;;486064;245;1176;-43
2021/06/21 03:52:26;;;;;;;;;;;20.90;57.40;;;;;;485800;245;1214;-44
2021/06/21 03:54:28;;;;;;;;;;;20.90;57.40;;;;;;486125;244;1061;-44
2021/06/21 03:56:29;;;;;;;;;;;20.90;57.30;;;;;;486127;245;1156;-44
2021/06/21 03:58:30;;;;;;;;;;;20.90;57.30;;;;;;485872;245;1027;-43
2021/06/21 04:00:32;;;;;;;;;;;20.90;57.40;;;;;;485887;245;1080;-44
2021/06/21 04:02:33;;;;;;;;;;;20.90;57.40;;;;;;486166;245;2136;-43
2021/06/21 04:04:34;;;;;;;;;;;20.90;57.30;;;;;;485814;245;997;-44
2021/06/21 04:06:35;;;;;;;;;;;20.90;57.40;;;;;;485681;245;1419;-43
2021/06/21 04:08:37;;;;;;;;;;;20.90;57.40;;;;;;486063;245;1188;-44
2021/06/21 04:10:39;;;;;;;;;;;20.90;57.40;;;;;;486225;245;1038;-44
2021/06/21 04:12:39;;;;;;;;;;;20.90;57.40;;;;;;485734;245;2198;-43
2021/06/21 04:14:41;;;;;;;;;;;20.90;57.50;;;;;;485753;245;1124;-43
2021/06/21 04:16:42;;;;;;;;;;;20.90;57.50;;;;;;485695;245;1148;-43
2021/06/21 04:18:43;;;;;;;;;;;20.90;57.50;;;;;;485801;245;1084;-44
2021/06/21 04:20:45;;;;;;;;;;;20.90;57.50;;;;;;485898;245;1128;-44
2021/06/21 04:22:46;;;;;;;;;;;20.90;57.40;;;;;;486060;245;2143;-44
2021/06/21 04:24:47;;;;;;;;;;;20.90;57.40;;;;;;485980;245;1067;-44
2021/06/21 04:26:49;;;;;;;;;;;20.90;57.30;;;;;;485499;245;1065;-44
2021/06/21 04:28:50;;;;;;;;;;;20.90;57.40;;;;;;485651;245;1058;-43
2021/06/21 04:30:51;;;;;;;;;;;20.90;57.40;;;;;;485651;245;1193;-44
2021/06/21 04:32:53;;;;;;;;;;;20.90;57.40;;;;;;485669;245;1082;-43
2021/06/21 04:34:54;;;;;;;;;;;20.90;57.40;;;;;;486006;245;1147;-44
2021/06/21 04:36:55;;;;;;;;;;;20.90;57.40;;;;;;485748;245;1189;-44
2021/06/21 04:38:57;;;;;;;;;;;20.90;57.40;;;;;;485683;245;1052;-44
2021/06/21 04:40:58;;;;;;;;;;;20.90;57.40;;;;;;485771;245;1032;-44
2021/06/21 04:42:59;;;;;;;;;;;20.90;57.50;;;;;;485504;245;2211;-44
2021/06/21 04:45:00;;;;;;;;;;;20.90;57.40;;;;;;485583;245;1088;-43
2021/06/21 04:47:02;;;;;;;;;;;20.90;57.50;;;;;;485784;244;1147;-44
2021/06/21 04:49:05;;;;;;;;;;;20.90;57.50;;;;;;485549;245;1109;-43
2021/06/21 04:51:04;;;;;;;;;;;20.90;57.50;;;;;;485566;245;1991;-44
2021/06/21 04:53:06;;;;;;;;;;;20.90;57.50;;;;;;485604;245;1512;-44
2021/06/21 04:55:07;;;;;;;;;;;20.90;57.50;;;;;;485644;245;1063;-43
2021/06/21 04:57:08;;;;;;;;;;;20.90;57.50;;;;;;485500;245;1169;-43
2021/06/21 04:59:10;;;;;;;;;;;20.90;57.50;;;;;;485672;245;1071;-44
2021/06/21 05:01:11;;;;;;;;;;;20.90;57.50;;;;;;485751;245;1424;-44
2021/06/21 05:03:12;;;;;;;;;;;20.90;57.40;;;;;;485545;245;2191;-43
2021/06/21 05:05:14;;;;;;;;;;;20.90;57.50;;;;;;485509;245;1119;-43
2021/06/21 05:07:15;;;;;;;;;;;20.90;57.40;;;;;;485510;245;1354;-44
2021/06/21 05:09:16;;;;;;;;;;;20.90;57.40;;;;;;485869;245;1117;-44
2021/06/21 05:11:18;;;;;;;;;;;20.90;57.40;;;;;;485970;245;1451;-44
2021/06/21 05:13:19;;;;;;;;;;;20.90;57.50;;;;;;485690;245;1156;-44
2021/06/21 05:15:20;;;;;;;;;;;20.90;57.50;;;;;;485567;245;1074;-44
2021/06/21 05:17:22;;;;;;;;;;;20.80;57.50;;;;;;485463;245;1264;-43
2021/06/21 05:19:23;;;;;;;;;;;20.80;57.50;;;;;;485541;245;1102;-44
2021/06/21 05:21:25;;;;;;;;;;;20.90;57.50;;;;;;485586;245;1365;-44
2021/06/21 05:23:26;;;;;;;;;;;20.90;57.40;;;;;;485431;245;2190;-44
2021/06/21 05:25:28;;;;;;;;;;;20.90;57.50;;;;;;485658;245;1089;-44
2021/06/21 05:27:30;;;;;;;;;;;20.90;57.50;;;;;;485427;245;2419;-43
2021/06/21 05:29:32;;;;;;;;;;;20.90;57.50;;;;;;485592;245;1338;-43
2021/06/21 05:31:32;;;;;;;;;;;20.90;57.50;;;;;;485474;245;2034;-43
2021/06/21 05:33:34;;;;;;;;;;;20.90;57.50;;;;;;485446;245;1110;-44
2021/06/21 05:35:35;;;;;;;;;;;20.90;57.50;;;;;;485502;245;1068;-43
2021/06/21 05:37:36;;;;;;;;;;;20.90;57.40;;;;;;485268;245;1222;-44
2021/06/21 05:39:38;;;;;;;;;;;20.90;57.40;;;;;;485439;245;1220;-44
2021/06/21 05:41:39;;;;;;;;;;;20.90;57.50;;;;;;485429;245;1196;-43
2021/06/21 05:43:40;;;;;;;;;;;20.90;57.50;;;;;;485388;245;2119;-43
2021/06/21 05:45:42;;;;;;;;;;;20.90;57.50;;;;;;485553;245;1405;-43
2021/06/21 05:47:43;;;;;;;;;;;20.90;57.50;;;;;;485374;245;1148;-43
2021/06/21 05:49:44;;;;;;;;;;;20.90;57.40;;;;;;485424;245;1091;-44
2021/06/21 05:51:46;;;;;;;;;;;20.90;57.40;;;;;;485464;245;1284;-43
2021/06/21 05:53:47;;;;;;;;;;;20.90;57.40;;;;;;485284;245;1153;-44
2021/06/21 05:55:48;;;;;;;;;;;20.90;57.50;;;;;;485281;245;1091;-43
2021/06/21 05:57:53;;;;;;;;;;;20.90;57.50;;;;;;485131;245;1487;-44
2021/06/21 05:59:51;;;;;;;;;;;20.90;57.50;;;;;;485115;245;2051;-44
2021/06/21 06:01:53;;;;;;;;;;;20.80;57.40;;;;;;484988;245;1246;-44
2021/06/21 06:03:54;;;;;;;;;;;20.90;57.50;;;;;;485163;245;2207;-43
2021/06/21 06:05:55;;;;;;;;;;;20.90;57.50;;;;;;485121;245;1235;-43
2021/06/21 06:07:57;;;;;;;;;;;20.90;57.40;;;;;;485327;245;1324;-44
2021/06/21 06:09:58;;;;;;;;;;;20.90;57.40;;;;;;485300;245;1109;-44
2021/06/21 06:11:59;;;;;;;;;;;20.90;57.50;;;;;;485136;245;1335;-44
2021/06/21 06:14:01;;;;;;;;;;;20.90;57.50;;;;;;485328;244;1209;-44
2021/06/21 06:16:02;;;;;;;;;;;20.80;57.50;;;;;;485102;245;1347;-44
2021/06/21 06:18:03;;;;;;;;;;;20.90;57.50;;;;;;485103;245;1217;-44
2021/06/21 06:20:04;;;;;;;;;;;20.90;57.40;;;;;;485044;245;1125;-44
2021/06/21 06:22:06;;;;;;;;;;;20.80;57.50;;;;;;485099;245;1244;-43
2021/06/21 06:24:08;;;;;;;;;;;20.80;57.50;;;;;;484987;245;2186;-44
2021/06/21 06:26:09;;;;;;;;;;;20.80;57.50;;;;;;484966;245;1214;-43
2021/06/21 06:28:10;;;;;;;;;;;20.80;57.50;;;;;;485240;245;1099;-43
2021/06/21 06:30:12;;;;;;;;;;;20.90;57.40;;;;;;485157;245;1105;-43
2021/06/21 06:32:13;;;;;;;;;;;20.90;57.50;;;;;;485025;245;1206;-43
2021/06/21 06:34:15;;;;;;;;;;;20.80;57.50;;;;;;485093;245;1224;-44
2021/06/21 06:36:16;;;;;;;;;;;20.90;57.60;;;;;;485042;245;1266;-44
2021/06/21 06:38:17;;;;;;;;;;;20.90;57.50;;;;;;485138;245;1255;-44
2021/06/21 06:40:19;;;;;;;;;;;20.90;57.60;;;;;;485169;245;1099;-44
2021/06/21 06:42:20;;;;;;;;;;;20.80;57.50;;;;;;485164;245;1193;-44
2021/06/21 06:44:21;;;;;;;;;;;20.80;57.50;;;;;;485218;245;2143;-44
2021/06/21 06:46:22;;;;;;;;;;;20.90;57.50;;;;;;485033;245;1297;-43
2021/06/21 06:48:25;;;;;;;;;;;20.90;57.50;;;;;;484868;245;1216;-43
2021/06/21 06:50:25;;;;;;;;;;;20.90;57.50;;;;;;485223;245;2083;-44
2021/06/21 06:52:26;;;;;;;;;;;20.90;57.50;;;;;;485036;245;1316;-44
2021/06/21 06:54:29;;;;;;;;;;;20.90;57.60;;;;;;484952;245;1126;-44
2021/06/21 06:58:48;;;;;;;;;;;20.80;57.50;;;;;;485154;245;1154;-43
2021/06/21 07:00:50;;;;;;;;;;;20.80;57.50;;;;;;484749;245;1261;-43
2021/06/21 07:02:51;;;;;;;;;;;20.90;57.50;;;;;;484880;245;1201;-43
2021/06/21 07:04:52;;;;;;;;;;;20.90;57.40;;;;;;484901;245;2195;-43
2021/06/21 07:06:54;;;;;;;;;;;20.90;57.40;;;;;;484768;245;1348;-43
2021/06/21 07:08:55;;;;;;;;;;;20.90;57.50;;;;;;485145;245;1035;-43
2021/06/21 07:10:56;;;;;;;;;;;20.90;57.40;;;;;;485023;245;989;-44
2021/06/21 07:12:58;;;;;;;;;;;20.90;57.40;;;;;;485107;245;1163;-43
2021/06/21 07:14:59;;;;;;;;;;;20.90;57.50;;;;;;484936;245;1160;-43
2021/06/21 07:17:00;;;;;;;;;;;20.90;57.50;;;;;;484913;245;1120;-44
2021/06/21 07:19:01;;;;;;;;;;;20.90;57.50;;;;;;484963;245;1132;-44
2021/06/21 07:21:03;;;;;;;;;;;20.90;57.60;;;;;;485021;245;1235;-43
2021/06/21 07:23:04;;;;;;;;;;;20.90;57.50;;;;;;484877;245;1311;-43
2021/06/21 07:25:05;;;;;;;;;;;20.90;57.50;;;;;;484916;245;2215;-44
2021/06/21 07:27:07;;;;;;;;;;;20.90;57.50;;;;;;484949;245;1288;-44
2021/06/21 07:29:08;;;;;;;;;;;20.90;57.50;;;;;;484971;245;1134;-44
2021/06/21 07:31:10;;;;;;;;;;;20.90;57.50;;;;;;484933;245;1386;-44
2021/06/21 07:33:11;;;;;;;;;;;20.80;57.50;;;;;;485152;245;1993;-43
2021/06/21 07:35:12;;;;;;;;;;;20.90;57.50;;;;;;484927;245;1068;-43
2021/06/21 07:37:13;;;;;;;;;;;20.90;57.40;;;;;;484796;245;1261;-43
2021/06/21 07:39:15;;;;;;;;;;;20.90;57.50;;;;;;484943;245;1179;-43
2021/06/21 07:41:16;;;;;;;;;;;20.90;57.50;;;;;;484806;245;1506;-43
2021/06/21 07:43:17;;;;;;;;;;;20.80;57.50;;;;;;484801;245;1117;-44
2021/06/21 07:45:19;;;;;;;;;;;20.80;57.50;;;;;;484940;245;2202;-43
2021/06/21 07:47:21;;;;;;;;;;;20.90;57.50;;;;;;484695;245;1290;-43
2021/06/21 07:49:21;;;;;;;;;;;20.90;57.50;;;;;;484736;245;1315;-43
2021/06/21 07:51:23;;;;;;;;;;;20.90;57.50;;;;;;484822;245;1156;-44
2021/06/21 07:53:24;;;;;;;;;;;20.90;57.50;;;;;;484759;245;1169;-43
2021/06/21 07:55:27;;;;;;;;;;;20.90;57.50;;;;;;484729;245;1097;-43
2021/06/21 07:57:28;;;;;;;;;;;20.90;57.50;;;;;;484920;245;2136;-43
2021/06/21 07:59:29;;;;;;;;;;;20.90;57.50;;;;;;485016;245;1297;-44
2021/06/21 08:01:31;;;;;;;;;;;20.90;57.50;;;;;;484924;245;1163;-44
2021/06/21 08:03:32;;;;;;;;;;;20.90;57.50;;;;;;484866;245;1376;-43
2021/06/21 08:05:33;;;;;;;;;;;20.90;57.50;;;;;;485197;245;2199;-44
2021/06/21 08:07:35;;;;;;;;;;;20.90;57.50;;;;;;485594;245;1360;-43
2021/06/21 08:09:38;;;;;;;;;;;20.90;57.50;;;;;;484796;245;1175;-43
2021/06/21 08:11:37;;;;;;;;;;;20.90;57.50;;;;;;484625;245;1545;-43
2021/06/21 08:13:39;;;;;;;;;;;20.90;57.50;;;;;;485644;245;1083;-44
2021/06/21 08:15:40;;;;;;;;;;;20.80;57.50;;;;;;485677;245;1120;-43
2021/06/21 08:17:41;;;;;;;;;;;20.80;57.50;;;;;;485407;245;1100;-43
2021/06/21 08:19:44;;;;;;;;;;;20.80;57.50;;;;;;484698;245;1097;-44
2021/06/21 08:21:44;;;;;;;;;;;20.80;57.50;;;;;;484920;245;2140;-44
2021/06/21 08:23:45;;;;;;;;;;;20.80;57.50;;;;;;485250;245;1066;-44
2021/06/21 08:25:47;;;;;;;;;;;20.80;57.50;;;;;;484727;245;2198;-43
2021/06/21 08:27:49;;;;;;;;;;;20.80;57.50;;;;;;484255;245;1121;-43
2021/06/21 08:29:50;;;;;;;;;;;20.80;57.50;;;;;;484640;245;1154;-43
2021/06/21 08:31:51;;;;;;;;;;;20.90;57.60;;;;;;484715;245;1338;-44
2021/06/21 08:33:53;;;;;;;;;;;20.90;57.50;;;;;;484758;245;1071;-43
2021/06/21 08:35:54;;;;;;;;;;;20.90;57.60;;;;;;484723;245;1206;-43
2021/06/21 08:37:55;;;;;;;;;;;20.90;57.50;;;;;;484780;245;1266;-43
2021/06/21 08:39:57;;;;;;;;;;;20.90;57.50;;;;;;484855;245;1216;-43
2021/06/21 08:41:58;;;;;;;;;;;20.90;57.50;;;;;;484790;245;1450;-44
2021/06/21 08:43:59;;;;;;;;;;;20.80;57.50;;;;;;484820;245;1319;-43
2021/06/21 08:46:01;;;;;;;;;;;20.90;57.50;;;;;;484791;245;2120;-43
2021/06/21 08:48:02;;;;;;;;;;;20.90;57.50;;;;;;485103;245;1343;-44
2021/06/21 08:50:03;;;;;;;;;;;20.90;57.40;;;;;;484855;245;1267;-44
2021/06/21 08:52:05;;;;;;;;;;;20.90;57.40;;;;;;484881;245;1337;-43
2021/06/21 08:54:06;;;;;;;;;;;20.90;57.50;;;;;;484828;245;1330;-44
2021/06/21 08:56:10;;;;;;;;;;;20.80;57.50;;;;;;484854;245;1177;-43
2021/06/21 08:58:09;;;;;;;;;;;20.80;57.50;;;;;;484548;245;2337;-44
2021/06/21 09:00:10;;;;;;;;;;;20.90;57.50;;;;;;484749;245;1325;-44
2021/06/21 09:02:12;;;;;;;;;;;20.90;57.50;;;;;;484822;245;1258;-44
2021/06/21 09:04:13;;;;;;;;;;;20.90;57.50;;;;;;484781;245;1175;-44
2021/06/21 09:06:14;;;;;;;;;;;20.90;57.40;;;;;;484682;245;2183;-44
2021/06/21 09:08:16;;;;;;;;;;;20.90;57.50;;;;;;484667;245;1245;-43
2021/06/21 09:10:17;;;;;;;;;;;20.80;57.50;;;;;;484541;245;1174;-44
2021/06/21 09:12:18;;;;;;;;;;;20.90;57.50;;;;;;484716;245;1177;-43
2021/06/21 09:14:20;;;;;;;;;;;20.90;57.50;;;;;;484756;245;1109;-44
2021/06/21 09:16:21;;;;;;;;;;;20.80;57.30;;;;;;484805;241;1278;-43
2021/06/21 09:18:22;;;;;;;;;;;20.90;57.50;;;;;;484835;245;1513;-44
2021/06/21 09:20:24;;;;;;;;;;;20.90;57.50;;;;;;484733;245;1388;-43
2021/06/21 09:22:26;;;;;;;;;;;20.90;57.50;;;;;;484602;245;1212;-43
2021/06/21 09:24:26;;;;;;;;;;;20.80;57.50;;;;;;484644;245;2161;-43
2021/06/21 09:26:28;;;;;;;;;;;20.80;57.60;;;;;;484598;245;1283;-44
2021/06/21 09:28:29;;;;;;;;;;;20.80;57.50;;;;;;484917;245;1215;-43
2021/06/21 09:30:31;;;;;;;;;;;20.80;57.50;;;;;;484685;245;1174;-44
2021/06/21 09:32:32;;;;;;;;;;;20.90;57.40;;;;;;484754;245;1180;-44
2021/06/21 09:34:34;;;;;;;;;;;20.90;57.50;;;;;;484694;245;1157;-43
2021/06/21 09:36:36;;;;;;;;;;;20.80;57.40;;;;;;484671;245;1221;-43
2021/06/21 09:38:36;;;;;;;;;;;20.90;57.50;;;;;;484634;245;1635;-43
2021/06/21 09:40:38;;;;;;;;;;;20.90;57.50;;;;;;484720;245;1163;-43
2021/06/21 09:42:39;;;;;;;;;;;20.80;57.50;;;;;;484588;245;1373;-44
2021/06/21 09:44:40;;;;;;;;;;;20.90;57.50;;;;;;484611;245;2211;-43
2021/06/21 09:46:42;;;;;;;;;;;20.80;57.40;;;;;;484621;245;1096;-43
2021/06/21 09:48:43;;;;;;;;;;;20.90;57.50;;;;;;484826;245;1240;-44
2021/06/21 09:50:44;;;;;;;;;;;20.90;57.50;;;;;;484889;245;1082;-43
2021/06/21 09:52:46;;;;;;;;;;;20.80;57.40;;;;;;484714;241;1511;-43
2021/06/21 09:54:47;;;;;;;;;;;20.90;57.50;;;;;;484686;245;1202;-43
2021/06/21 09:56:49;;;;;;;;;;;20.90;57.40;;;;;;484788;245;1117;-43
2021/06/21 09:58:50;;;;;;;;;;;20.90;57.40;;;;;;484873;245;1260;-44
2021/06/21 10:00:51;;;;;;;;;;;20.90;57.40;;;;;;484853;245;1177;-44
2021/06/21 10:02:52;;;;;;;;;;;20.90;57.50;;;;;;484873;245;1111;-44
2021/06/21 10:04:54;;;;;;;;;;;20.90;57.40;;;;;;484840;245;2213;-43
2021/06/21 10:06:55;;;;;;;;;;;20.90;57.40;;;;;;484687;245;1446;-44
2021/06/21 10:08:56;;;;;;;;;;;20.90;57.40;;;;;;484828;245;1364;-43
2021/06/21 10:11:06;;;;;;;;;;;20.90;57.50;;;;;;484796;245;1388;-44
2021/06/21 10:12:59;;;;;;;;;;;20.90;57.50;;;;;;484192;245;2031;-43
2021/06/21 10:15:00;;;;;;;;;;;20.80;57.50;;;;;;484812;245;1120;-43
2021/06/21 10:17:02;;;;;;;;;;;20.80;57.50;;;;;;484629;245;1199;-43
2021/06/21 10:19:03;;;;;;;;;;;20.90;57.50;;;;;;484515;245;1162;-43
2021/06/21 10:21:05;;;;;;;;;;;20.90;57.40;;;;;;484454;245;1511;-44
2021/06/21 10:23:06;;;;;;;;;;;20.90;57.50;;;;;;484432;245;1181;-43
2021/06/21 10:25:08;;;;;;;;;;;20.90;57.50;;;;;;484458;245;2198;-43
2021/06/21 10:27:09;;;;;;;;;;;20.90;57.40;;;;;;484825;245;1279;-43
2021/06/21 10:29:10;;;;;;;;;;;20.90;57.40;;;;;;484662;245;1210;-43
2021/06/21 10:31:12;;;;;;;;;;;20.80;57.50;;;;;;484699;245;1303;-43
2021/06/21 10:33:13;;;;;;;;;;;20.80;57.50;;;;;;485611;245;1137;-44
2021/06/21 10:35:14;;;;;;;;;;;20.90;57.50;;;;;;485595;245;850;-44
2021/06/21 10:37:17;;;;;;;;;;;20.90;57.50;;;;;;485136;245;1355;-44
2021/06/21 10:39:17;;;;;;;;;;;20.90;57.50;;;;;;484445;245;2001;-44
2021/06/21 10:41:18;;;;;;;;;;;20.80;57.50;;;;;;484456;245;1449;-44
2021/06/21 10:43:20;;;;;;;;;;;20.90;57.50;;;;;;485199;245;825;-43
2021/06/21 10:45:21;;;;;;;;;;;20.90;57.50;;;;;;484775;245;2182;-44
2021/06/21 10:47:22;;;;;;;;;;;20.90;57.40;;;;;;484785;245;1013;-43
2021/06/21 10:49:24;;;;;;;;;;;20.90;57.40;;;;;;485265;245;760;-44
2021/06/21 10:51:25;;;;;;;;;;;20.90;57.50;;;;;;484634;245;1483;-43
2021/06/21 10:53:26;;;;;;;;;;;20.90;57.40;;;;;;484818;245;767;-44
2021/06/21 10:55:29;;;;;;;;;;;20.90;57.40;;;;;;484647;245;1259;-44
2021/06/21 10:57:29;;;;;;;;;;;20.90;57.40;;;;;;483886;245;1892;-44
2021/06/21 10:59:30;;;;;;;;;;;20.90;57.50;;;;;;484623;245;766;-43
2021/06/21 11:01:32;;;;;;;;;;;20.90;57.30;;;;;;485135;245;1074;-44
2021/06/21 11:03:34;;;;;;;;;;;20.90;57.40;;;;;;484520;245;764;-43
2021/06/21 11:05:34;;;;;;;;;;;20.90;57.40;;;;;;484475;245;2198;-43
2021/06/21 11:07:36;;;;;;;;;;;20.90;57.40;;;;;;484810;245;1132;-44
2021/06/21 11:09:37;;;;;;;;;;;20.90;57.40;;;;;;485104;245;1079;-44
2021/06/21 11:11:41;;;;;;;;;;;20.90;57.40;;;;;;484667;245;1260;-44
2021/06/21 11:13:40;;;;;;;;;;;20.90;57.30;;;;;;485100;245;1318;-44
2021/06/21 11:15:41;;;;;;;;;;;20.90;57.30;;;;;;484922;245;1445;-44
2021/06/21 11:17:43;;;;;;;;;;;20.90;57.40;;;;;;485185;245;1024;-44
2021/06/21 11:19:44;;;;;;;;;;;20.90;57.40;;;;;;485138;245;759;-43
2021/06/21 11:21:47;;;;;;;;;;;20.90;57.40;;;;;;484978;245;1208;-44
2021/06/21 11:23:47;;;;;;;;;;;20.90;57.40;;;;;;485166;245;2319;-44
2021/06/21 11:25:48;;;;;;;;;;;20.90;57.40;;;;;;484883;245;2206;-44
2021/06/21 11:27:51;;;;;;;;;;;20.90;57.50;;;;;;485201;245;1058;-43
2021/06/21 11:29:52;;;;;;;;;;;20.90;57.40;;;;;;484795;245;1179;-44
2021/06/21 11:31:52;;;;;;;;;;;20.90;57.40;;;;;;484110;245;1368;-44
2021/06/21 11:33:54;;;;;;;;;;;20.90;57.40;;;;;;485351;245;791;-44
2021/06/21 11:35:56;;;;;;;;;;;20.80;57.40;;;;;;485150;245;1377;-44
2021/06/21 11:37:56;;;;;;;;;;;20.90;57.50;;;;;;484644;245;2053;-44
2021/06/21 11:39:58;;;;;;;;;;;20.90;57.30;;;;;;484800;245;1145;-44
2021/06/21 11:42:00;;;;;;;;;;;20.90;57.40;;;;;;484716;245;1456;-44
2021/06/21 11:44:00;;;;;;;;;;;20.90;57.40;;;;;;485213;245;1306;-44
2021/06/21 11:46:02;;;;;;;;;;;20.90;57.40;;;;;;485231;245;2203;-44
2021/06/21 11:48:03;;;;;;;;;;;20.90;57.40;;;;;;484834;245;1009;-43
2021/06/21 11:50:04;;;;;;;;;;;20.90;57.40;;;;;;484911;245;846;-44
2021/06/21 11:52:06;;;;;;;;;;;20.90;57.30;;;;;;485398;245;1198;-43
2021/06/21 11:54:08;;;;;;;;;;;20.90;57.30;;;;;;485621;244;893;-43
2021/06/21 11:56:09;;;;;;;;;;;20.90;57.30;;;;;;485132;245;2178;-44
2021/06/21 11:58:10;;;;;;;;;;;20.90;57.40;;;;;;485131;245;1399;-43
2021/06/21 12:00:11;;;;;;;;;;;20.90;57.40;;;;;;485586;245;1268;-44